Timimoun, Algeria
Current Conditions -  °F | °C
As of 5:00 PM on Sunday 25 Jan 2015 (Local Time) from DAUT Reporting Station
Clear Clear  
Wind Chill: 59°   Ceiling: Unl
Heat Index: 59°   Visibility: 6mi
Dew Point: 25°   Wind: 7mph
Humidity: 27%   Direction: 340°NNW
Pressure: 30.12"   Gusts: NA
Location:  29.26°N, 0.23°E
Report Text: DAUT 251600Z 34006KT CAVOK 15/M04 Q1020
Loading
Personal Weather Stations






























Interactive Weather Map New forecast layout! Learn more

10-Day Weather Forecast

Advertisements
Track Severe Weather on mobile